Time;durP1;ratioP1;P1;durP2;ratioP2;P2;SDS_P1;SDS_P2;PMS_P1;PMS_P2;Temp;Humidity;BMP_temperature;BMP_pressure;BME280_temperature;BME280_humidity;BME280_pressure;Samples;Min_cycle;Max_cycle;Signal;HPM_P1;HPM_P2
2022/12/28 00:02:19;;;;;;;11.32;4.68;;;5.60;99.90;;;;;;5039954;28;20254;-69
2022/12/28 00:04:46;;;;;;;13.30;4.43;;;5.60;99.90;;;;;;5075201;28;20045;-75
2022/12/28 00:07:11;;;;;;;12.57;4.32;;;5.60;99.90;;;;;;5040759;28;20042;-68
2022/12/28 00:09:37;;;;;;;12.38;4.93;;;5.60;99.90;;;;;;5045009;28;20045;-67
2022/12/28 00:12:03;;;;;;;14.07;5.32;;;5.60;99.90;;;;;;5049888;28;20041;-67
2022/12/28 00:14:29;;;;;;;15.50;4.72;;;5.60;99.90;;;;;;5054426;28;20068;-69
2022/12/28 00:16:54;;;;;;;8.10;3.78;;;5.60;99.90;;;;;;5063836;28;20457;-68
2022/12/28 00:19:20;;;;;;;13.32;5.43;;;5.60;99.90;;;;;;5058065;28;20451;-68
2022/12/28 00:21:46;;;;;;;10.15;4.45;;;5.60;99.90;;;;;;5053232;28;20048;-67
2022/12/28 00:24:21;;;;;;;10.13;4.82;;;5.60;99.90;;;;;;5036134;28;20060;-69
2022/12/28 00:26:47;;;;;;;9.18;4.88;;;5.60;99.90;;;;;;5056492;28;20052;-70
2022/12/28 00:29:13;;;;;;;11.07;5.05;;;5.60;99.90;;;;;;5086530;28;20045;-69
2022/12/28 00:31:39;;;;;;;12.60;5.45;;;5.50;99.90;;;;;;5036431;28;20064;-68
2022/12/28 00:34:05;;;;;;;11.18;4.60;;;5.50;99.90;;;;;;5052483;28;20502;-69
2022/12/28 00:36:31;;;;;;;13.13;5.35;;;5.60;99.90;;;;;;5057277;28;20402;-69
2022/12/28 00:38:57;;;;;;;13.43;4.82;;;5.60;99.90;;;;;;5054759;28;20045;-69
2022/12/28 00:41:23;;;;;;;11.98;4.80;;;5.60;99.90;;;;;;5054022;28;20060;-70
2022/12/28 00:43:49;;;;;;;15.77;5.57;;;5.60;99.90;;;;;;5052264;28;20479;-70
2022/12/28 00:46:16;;;;;;;9.25;5.68;;;5.60;99.90;;;;;;5022847;28;20041;-69
2022/12/28 00:48:42;;;;;;;9.10;5.05;;;5.60;99.90;;;;;;5064495;28;20102;-71
2022/12/28 00:51:12;;;;;;;12.48;5.18;;;5.60;99.90;;;;;;5058086;28;20132;-69
2022/12/28 00:53:38;;;;;;;10.75;5.53;;;5.60;99.90;;;;;;5035852;28;20401;-69
2022/12/28 00:56:09;;;;;;;9.43;5.32;;;5.90;99.90;;;;;;5035744;28;20045;-70
2022/12/28 00:58:35;;;;;;;10.05;5.25;;;5.60;99.90;;;;;;5044996;28;20127;-70
2022/12/28 01:01:01;;;;;;;13.70;6.00;;;5.60;99.90;;;;;;5053330;28;20128;-69
2022/12/28 01:03:27;;;;;;;18.27;4.95;;;5.60;99.90;;;;;;5052131;28;20063;-68
2022/12/28 01:05:52;;;;;;;12.98;5.45;;;5.60;99.90;;;;;;5052545;28;20036;-68
2022/12/28 01:08:18;;;;;;;12.30;5.20;;;5.60;99.90;;;;;;5053573;28;20045;-68
2022/12/28 01:10:44;;;;;;;11.18;5.95;;;5.70;99.90;;;;;;5052587;28;20076;-69
2022/12/28 01:13:09;;;;;;;10.27;5.10;;;5.70;99.90;;;;;;5052096;28;20053;-68
2022/12/28 01:15:36;;;;;;;8.95;3.88;;;5.60;99.90;;;;;;5053237;28;20430;-68
2022/12/28 01:18:02;;;;;;;12.27;4.75;;;5.70;99.90;;;;;;5052917;28;20044;-70
2022/12/28 01:20:27;;;;;;;12.00;5.30;;;5.70;99.90;;;;;;5060658;28;20455;-69
2022/12/28 01:22:54;;;;;;;9.35;5.70;;;5.70;99.90;;;;;;5035693;28;20037;-68
2022/12/28 01:25:19;;;;;;;10.23;4.72;;;5.70;99.90;;;;;;5052656;28;20080;-68
2022/12/28 01:27:45;;;;;;;7.20;4.55;;;5.70;99.90;;;;;;5053150;28;20079;-68
2022/12/28 01:30:13;;;;;;;11.80;5.55;;;5.70;99.90;;;;;;5061634;28;20049;-69
2022/12/28 01:32:39;;;;;;;9.50;5.25;;;5.70;99.90;;;;;;5068797;28;20431;-70
2022/12/28 01:35:06;;;;;;;9.68;5.07;;;5.80;99.90;;;;;;5034411;28;20092;-68
2022/12/28 01:37:31;;;;;;;11.07;5.60;;;5.80;99.90;;;;;;5052116;28;20079;-68
2022/12/28 01:39:58;;;;;;;11.23;4.82;;;5.80;99.90;;;;;;5059238;28;20076;-68
2022/12/28 01:42:24;;;;;;;7.85;4.65;;;5.70;99.90;;;;;;5051605;28;20049;-68
2022/12/28 01:44:51;;;;;;;12.52;5.97;;;5.70;99.90;;;;;;5052922;28;20056;-70
2022/12/28 01:47:27;;;;;;;10.18;6.03;;;5.80;99.90;;;;;;5052291;28;20049;-68
2022/12/28 01:50:10;;;;;;;14.02;5.95;;;5.70;99.90;;;;;;5057089;28;20124;-68
2022/12/28 01:52:51;;;;;;;9.32;5.07;;;5.80;99.90;;;;;;5052850;28;20049;-67
2022/12/28 01:55:40;;;;;;;11.00;6.13;;;5.70;99.90;;;;;;5050987;28;20072;-68
2022/12/28 01:58:11;;;;;;;9.27;5.50;;;5.70;99.90;;;;;;5050902;28;20139;-68
2022/12/28 02:00:38;;;;;;;12.32;6.05;;;5.70;99.90;;;;;;5050287;28;20049;-70
2022/12/28 02:03:14;;;;;;;11.15;5.68;;;5.70;99.90;;;;;;5053646;28;20156;-73
2022/12/28 02:05:47;;;;;;;8.88;5.95;;;5.70;99.90;;;;;;5051468;28;20390;-68
2022/12/28 02:08:42;;;;;;;12.35;6.88;;;5.70;99.90;;;;;;5051774;28;20056;-67
2022/12/28 02:11:11;;;;;;;8.15;6.15;;;5.70;99.90;;;;;;5046649;28;20490;-68
2022/12/28 02:13:38;;;;;;;17.85;6.57;;;5.70;99.90;;;;;;5052476;28;20052;-68
2022/12/28 02:16:04;;;;;;;12.27;6.18;;;5.70;99.90;;;;;;5084209;28;20131;-74
2022/12/28 02:18:30;;;;;;;19.27;7.72;;;5.70;99.90;;;;;;5051915;28;20053;-68
2022/12/28 02:21:08;;;;;;;11.88;7.32;;;5.70;99.90;;;;;;5054783;28;20048;-70
2022/12/28 02:24:04;;;;;;;11.73;6.07;;;5.70;99.90;;;;;;5052864;28;20518;-69
2022/12/28 02:27:07;;;;;;;7.38;5.28;;;5.80;99.90;;;;;;5050990;28;20048;-69
2022/12/28 02:29:48;;;;;;;12.93;6.72;;;5.70;99.90;;;;;;5033226;28;20457;-68
2022/12/28 02:32:30;;;;;;;14.57;7.22;;;5.70;99.90;;;;;;5051443;28;20078;-69
2022/12/28 02:35:08;;;;;;;8.35;6.35;;;5.80;99.90;;;;;;5048620;28;20049;-68
2022/12/28 02:37:46;;;;;;;8.70;5.63;;;5.70;99.90;;;;;;5033721;28;20368;-69
2022/12/28 02:40:18;;;;;;;10.10;6.88;;;5.70;99.90;;;;;;5070288;28;20057;-66
2022/12/28 02:42:45;;;;;;;9.82;6.47;;;5.60;99.90;;;;;;5034498;28;20117;-69
2022/12/28 02:51:15;;;;;;;8.02;5.18;;;5.60;99.90;;;;;;5031679;28;20057;-76
2022/12/28 02:54:03;;;;;;;8.13;6.63;;;5.70;99.90;;;;;;5082275;28;20386;-73
2022/12/28 02:56:43;;;;;;;14.85;7.15;;;5.70;99.90;;;;;;5041558;28;20060;-73
2022/12/28 02:59:37;;;;;;;8.60;5.65;;;5.60;99.90;;;;;;5050159;28;20041;-70
2022/12/28 03:02:32;;;;;;;12.82;7.43;;;5.70;99.90;;;;;;5034581;28;20072;-69
2022/12/28 03:05:10;;;;;;;7.47;5.93;;;5.60;99.90;;;;;;5036254;28;20442;-69
2022/12/28 03:10:53;;;;;;;7.93;4.78;;;5.70;99.90;;;;;;5043050;28;20160;-71
2022/12/28 03:13:51;;;;;;;10.77;6.28;;;5.80;99.90;;;;;;5034044;28;20052;-69
2022/12/28 03:33:20;;;;;;;10.60;7.28;;;5.90;99.90;;;;;;5045120;28;20518;-69
2022/12/28 03:36:01;;;;;;;12.40;7.80;;;5.90;99.90;;;;;;5079662;28;20041;-68
2022/12/28 03:38:41;;;;;;;9.18;7.32;;;6.00;99.90;;;;;;5035030;28;20049;-73
2022/12/28 03:41:12;;;;;;;15.10;7.93;;;6.00;99.90;;;;;;5078817;28;20088;-69
2022/12/28 03:43:48;;;;;;;16.25;8.23;;;6.00;99.90;;;;;;5054212;28;20036;-69
2022/12/28 03:46:23;;;;;;;10.45;6.18;;;6.10;99.90;;;;;;5052286;28;20688;-69
2022/12/28 03:48:50;;;;;;;8.95;6.60;;;6.10;99.90;;;;;;5035054;28;20124;-69
2022/12/28 03:51:21;;;;;;;11.95;7.57;;;6.00;99.90;;;;;;5041994;28;20041;-70
2022/12/28 03:53:47;;;;;;;12.23;7.68;;;6.10;99.90;;;;;;5041026;28;20194;-70
2022/12/28 03:56:25;;;;;;;8.70;6.55;;;6.20;99.90;;;;;;5039591;28;20646;-70
2022/12/28 03:58:52;;;;;;;10.93;8.35;;;6.20;99.90;;;;;;5080650;28;20057;-69
2022/12/28 04:01:18;;;;;;;12.30;7.75;;;6.10;99.90;;;;;;5032836;28;20045;-73
2022/12/28 04:03:44;;;;;;;9.93;6.35;;;6.20;99.90;;;;;;5053416;28;20044;-70
2022/12/28 04:06:15;;;;;;;12.32;7.60;;;6.20;99.90;;;;;;5040449;28;20555;-68
2022/12/28 04:08:42;;;;;;;10.40;7.70;;;6.20;99.90;;;;;;5055137;28;20724;-67
2022/12/28 04:11:08;;;;;;;12.15;6.88;;;6.20;99.90;;;;;;5050522;28;20052;-68
2022/12/28 04:13:34;;;;;;;10.57;6.93;;;6.30;99.90;;;;;;5051731;28;20053;-69
2022/12/28 04:16:06;;;;;;;8.38;5.65;;;6.30;99.90;;;;;;5062385;28;20098;-69
2022/12/28 04:18:33;;;;;;;9.38;5.63;;;6.30;99.90;;;;;;5055393;28;20619;-68
2022/12/28 04:20:59;;;;;;;8.13;6.13;;;6.30;99.90;;;;;;5050547;28;20174;-69
2022/12/28 04:23:25;;;;;;;9.13;6.75;;;6.40;99.90;;;;;;5048827;28;20041;-68
2022/12/28 04:26:02;;;;;;;9.02;6.30;;;6.40;99.90;;;;;;5050653;28;20041;-68
2022/12/28 04:28:30;;;;;;;9.32;6.90;;;6.30;99.90;;;;;;5049866;28;20059;-69
2022/12/28 04:30:57;;;;;;;10.55;7.53;;;6.30;99.90;;;;;;5050307;28;20483;-69
2022/12/28 04:33:24;;;;;;;10.02;6.70;;;6.40;99.90;;;;;;5048936;28;20044;-76
2022/12/28 04:35:50;;;;;;;7.95;5.95;;;6.40;99.90;;;;;;5050094;28;20045;-68
2022/12/28 04:38:16;;;;;;;8.55;7.15;;;6.40;99.90;;;;;;5032145;28;20064;-69
2022/12/28 04:40:41;;;;;;;8.82;6.65;;;6.40;99.90;;;;;;5056373;28;20482;-69
2022/12/28 04:43:07;;;;;;;8.48;6.38;;;6.50;99.90;;;;;;5046648;28;20410;-69
2022/12/28 04:45:33;;;;;;;9.60;7.18;;;6.50;99.90;;;;;;5046915;28;20041;-69
2022/12/28 04:47:59;;;;;;;9.23;7.07;;;6.40;99.90;;;;;;5078146;28;20111;-69
2022/12/28 04:50:25;;;;;;;9.02;6.47;;;6.50;99.90;;;;;;5048806;28;20123;-76
2022/12/28 04:52:51;;;;;;;10.88;6.40;;;6.50;99.90;;;;;;5066054;28;20063;-69
2022/12/28 04:55:17;;;;;;;7.40;5.38;;;6.50;99.90;;;;;;5073672;28;20128;-69
2022/12/28 04:57:44;;;;;;;8.43;6.65;;;6.60;99.90;;;;;;5042718;28;20429;-69
2022/12/28 05:00:12;;;;;;;9.77;6.65;;;6.60;99.90;;;;;;5080022;28;20565;-71
2022/12/28 05:02:38;;;;;;;8.23;6.28;;;6.60;99.90;;;;;;5083564;28;20410;-69
2022/12/28 05:05:04;;;;;;;9.07;7.15;;;6.60;99.90;;;;;;5052360;28;20041;-69
2022/12/28 05:07:30;;;;;;;9.82;7.28;;;6.60;99.90;;;;;;5053109;28;20110;-69
2022/12/28 05:09:55;;;;;;;8.68;6.95;;;6.50;99.90;;;;;;5033676;28;20567;-71
2022/12/28 05:12:21;;;;;;;9.57;6.22;;;6.60;99.90;;;;;;5052840;28;20072;-71
2022/12/28 05:14:47;;;;;;;12.38;7.90;;;6.60;99.90;;;;;;5033283;28;20053;-69
2022/12/28 05:17:13;;;;;;;9.35;7.68;;;6.70;99.90;;;;;;5046367;28;20040;-69
2022/12/28 05:19:39;;;;;;;10.55;8.85;;;6.70;99.90;;;;;;5041715;28;20445;-69
2022/12/28 05:22:10;;;;;;;10.48;6.97;;;6.70;99.90;;;;;;5048770;28;20041;-70
2022/12/28 05:24:37;;;;;;;8.70;6.95;;;6.70;99.90;;;;;;5047360;28;20102;-70
2022/12/28 05:27:02;;;;;;;10.32;7.50;;;6.70;99.90;;;;;;5026903;28;20081;-68
2022/12/28 05:29:28;;;;;;;11.82;8.90;;;6.70;99.90;;;;;;5040930;28;20080;-68
2022/12/28 05:31:54;;;;;;;10.80;8.48;;;6.80;99.90;;;;;;5068737;28;20041;-69
2022/12/28 05:34:19;;;;;;;10.98;9.05;;;6.80;99.90;;;;;;5046152;28;20087;-70
2022/12/28 05:36:45;;;;;;;11.43;7.93;;;6.80;99.90;;;;;;5042902;28;20037;-70
2022/12/28 05:39:11;;;;;;;9.82;8.63;;;6.80;99.90;;;;;;5039011;28;20099;-69
2022/12/28 05:41:36;;;;;;;10.68;8.07;;;6.80;99.90;;;;;;5041085;28;20423;-69
2022/12/28 05:44:02;;;;;;;11.18;9.02;;;6.80;99.90;;;;;;5052180;28;20096;-69
2022/12/28 05:46:33;;;;;;;12.27;8.75;;;6.90;99.90;;;;;;5041313;28;20045;-69
2022/12/28 05:48:59;;;;;;;14.50;11.15;;;7.00;99.90;;;;;;5041445;28;20131;-69
2022/12/28 05:51:28;;;;;;;12.35;10.60;;;7.00;99.90;;;;;;5039482;28;20083;-69
2022/12/28 05:53:54;;;;;;;14.30;9.82;;;7.00;99.90;;;;;;5047092;28;20048;-70
2022/12/28 05:56:26;;;;;;;15.75;11.50;;;7.00;99.90;;;;;;5071427;28;20392;-71
2022/12/28 05:59:12;;;;;;;14.63;11.90;;;7.00;99.90;;;;;;5050311;28;20116;-70
2022/12/28 06:01:40;;;;;;;13.70;11.13;;;7.00;99.90;;;;;;5079105;28;20443;-70
2022/12/28 06:04:10;;;;;;;18.55;13.18;;;7.00;99.90;;;;;;5043762;28;20053;-69
2022/12/28 06:06:36;;;;;;;15.30;10.88;;;7.10;99.90;;;;;;5049532;28;20032;-78
2022/12/28 06:09:02;;;;;;;15.43;11.13;;;7.10;99.90;;;;;;5051274;28;20124;-69
2022/12/28 06:11:29;;;;;;;17.77;13.00;;;7.20;99.90;;;;;;5052469;28;20449;-70
2022/12/28 06:13:56;;;;;;;23.35;14.27;;;7.20;99.90;;;;;;5051849;28;20048;-69
2022/12/28 06:16:27;;;;;;;18.42;13.27;;;7.20;99.90;;;;;;5084584;28;20041;-69
2022/12/28 06:18:53;;;;;;;14.60;11.75;;;7.20;99.90;;;;;;5050523;28;20574;-70
2022/12/28 06:21:25;;;;;;;23.08;14.68;;;7.30;99.90;;;;;;5052477;28;20128;-69
2022/12/28 06:23:52;;;;;;;14.93;11.52;;;7.30;99.90;;;;;;5050524;28;20106;-69
2022/12/28 06:26:20;;;;;;;16.77;13.38;;;7.30;99.90;;;;;;5051616;28;20091;-69
2022/12/28 06:28:47;;;;;;;16.90;13.75;;;7.30;99.90;;;;;;5053004;28;20072;-68
2022/12/28 06:31:18;;;;;;;18.98;13.48;;;7.40;99.90;;;;;;5052218;28;20048;-69
2022/12/28 06:33:45;;;;;;;14.60;10.80;;;7.40;99.90;;;;;;5051565;28;20044;-68
2022/12/28 06:36:16;;;;;;;17.48;13.48;;;7.40;99.90;;;;;;5051310;28;20060;-68
2022/12/28 06:38:42;;;;;;;16.08;13.15;;;;;;;;;;5069614;28;20045;-69
2022/12/28 06:41:10;;;;;;;15.43;11.82;;;7.50;99.90;;;;;;5050359;28;20057;-69
2022/12/28 06:43:38;;;;;;;14.35;10.80;;;7.40;99.90;;;;;;5084477;28;20136;-69
2022/12/28 06:46:04;;;;;;;14.57;10.77;;;7.50;99.90;;;;;;5037392;28;20072;-69
2022/12/28 06:48:32;;;;;;;12.15;10.52;;;7.60;99.90;;;;;;5042075;28;20060;-69
2022/12/28 06:51:00;;;;;;;12.27;11.00;;;7.60;99.90;;;;;;5049816;28;20045;-69
2022/12/28 06:53:29;;;;;;;15.18;9.95;;;7.50;99.90;;;;;;5051660;28;20110;-69
2022/12/28 06:55:56;;;;;;;13.95;11.15;;;7.60;99.90;;;;;;5049419;28;20482;-69
2022/12/28 06:58:23;;;;;;;14.85;12.05;;;7.70;99.90;;;;;;5051127;28;20076;-68
2022/12/28 07:00:49;;;;;;;14.25;10.75;;;7.60;99.90;;;;;;5049005;28;20049;-69
2022/12/28 07:03:15;;;;;;;14.43;11.95;;;7.70;99.90;;;;;;5047966;28;20055;-69
2022/12/28 07:05:41;;;;;;;14.25;9.70;;;7.60;99.90;;;;;;5043226;28;20056;-68
2022/12/28 07:08:07;;;;;;;14.48;11.23;;;7.70;99.90;;;;;;5030448;28;20045;-69
2022/12/28 07:10:33;;;;;;;15.32;10.75;;;7.70;99.90;;;;;;5049455;28;20040;-69
2022/12/28 07:12:59;;;;;;;13.25;11.00;;;7.70;99.90;;;;;;5031705;28;20048;-69
2022/12/28 07:15:24;;;;;;;13.38;10.57;;;7.80;99.90;;;;;;5046944;28;20403;-68
2022/12/28 07:17:50;;;;;;;14.50;10.35;;;7.80;99.90;;;;;;5022349;28;20048;-68
2022/12/28 07:20:16;;;;;;;13.80;10.68;;;7.80;99.90;;;;;;5046746;28;20099;-69
2022/12/28 07:22:42;;;;;;;13.23;10.48;;;7.80;99.90;;;;;;5046345;28;20550;-68
2022/12/28 07:25:08;;;;;;;15.07;11.43;;;7.80;99.90;;;;;;5045688;28;20083;-69
2022/12/28 07:27:34;;;;;;;15.23;11.10;;;7.80;99.90;;;;;;5046116;28;20059;-68
2022/12/28 07:30:00;;;;;;;11.93;10.05;;;7.80;99.90;;;;;;5043785;28;20055;-69
2022/12/28 07:32:26;;;;;;;17.20;11.23;;;7.90;99.90;;;;;;5047256;28;20045;-69
2022/12/28 07:34:51;;;;;;;15.95;11.15;;;7.80;99.90;;;;;;5050264;28;20117;-69
2022/12/28 07:37:17;;;;;;;18.20;11.70;;;7.80;99.90;;;;;;5044048;28;20113;-68
2022/12/28 07:39:43;;;;;;;16.50;12.40;;;7.90;99.90;;;;;;5049532;28;20106;-70
2022/12/28 07:42:10;;;;;;;15.93;12.85;;;7.90;99.90;;;;;;5046180;28;20049;-67
2022/12/28 07:44:40;;;;;;;21.33;11.52;;;7.90;99.90;;;;;;5048058;28;20124;-69
2022/12/28 07:47:07;;;;;;;19.02;12.15;;;8.00;99.90;;;;;;5046692;28;20049;-70
2022/12/28 07:49:32;;;;;;;18.67;12.27;;;7.90;99.90;;;;;;5029806;28;20548;-69
2022/12/28 07:51:58;;;;;;;23.23;12.23;;;7.90;99.90;;;;;;5029534;28;20046;-71
2022/12/28 07:54:24;;;;;;;17.40;12.07;;;8.00;99.90;;;;;;5040744;28;20084;-69
2022/12/28 07:56:50;;;;;;;18.42;12.48;;;8.00;99.90;;;;;;5046039;28;20037;-76
2022/12/28 07:59:15;;;;;;;20.77;10.98;;;8.10;99.90;;;;;;5050197;28;20164;-67
2022/12/28 08:01:41;;;;;;;20.08;11.48;;;8.00;99.90;;;;;;5047330;28;20045;-67
2022/12/28 08:04:12;;;;;;;20.90;11.90;;;8.10;99.90;;;;;;5047989;28;20490;-71
2022/12/28 08:06:40;;;;;;;19.33;11.85;;;8.20;99.90;;;;;;5048125;28;20068;-69
2022/12/28 08:09:08;;;;;;;17.10;10.45;;;8.20;99.90;;;;;;5049839;28;20052;-70
2022/12/28 08:11:37;;;;;;;15.77;11.13;;;8.20;99.90;;;;;;5048411;28;20052;-69
2022/12/28 08:14:05;;;;;;;16.42;10.38;;;8.20;99.90;;;;;;5045487;28;20390;-69
2022/12/28 08:16:34;;;;;;;17.13;9.93;;;8.30;99.90;;;;;;5038321;28;20060;-68
2022/12/28 08:19:00;;;;;;;19.48;12.25;;;8.20;99.90;;;;;;5041253;28;20075;-68
2022/12/28 08:21:28;;;;;;;16.08;11.27;;;8.40;99.90;;;;;;5047099;28;20584;-69
2022/12/28 08:23:55;;;;;;;20.27;12.35;;;8.40;99.90;;;;;;5033358;28;20043;-75
2022/12/28 08:26:22;;;;;;;19.23;12.05;;;8.30;99.90;;;;;;5041867;28;20045;-71
2022/12/28 08:28:51;;;;;;;14.98;12.38;;;8.30;99.90;;;;;;5040501;28;20450;-68
2022/12/28 08:31:22;;;;;;;17.35;13.30;;;8.30;99.90;;;;;;5045247;28;20049;-71
2022/12/28 08:33:48;;;;;;;19.23;14.45;;;8.30;99.90;;;;;;5048987;28;20045;-72
2022/12/28 08:36:14;;;;;;;17.33;11.50;;;8.30;99.90;;;;;;5042939;28;20728;-75
2022/12/28 08:38:42;;;;;;;18.27;13.52;;;8.30;99.90;;;;;;5047761;28;20376;-70
2022/12/28 08:41:11;;;;;;;16.55;11.93;;;8.30;99.90;;;;;;5037903;28;20060;-71
2022/12/28 08:43:37;;;;;;;16.83;13.10;;;8.30;99.90;;;;;;5047744;28;20111;-70
2022/12/28 08:46:09;;;;;;;15.80;12.90;;;8.30;99.90;;;;;;5043639;28;20041;-75
2022/12/28 08:48:35;;;;;;;15.93;13.00;;;8.30;99.90;;;;;;5042846;28;20041;-70
2022/12/28 08:51:03;;;;;;;16.52;11.65;;;8.40;99.90;;;;;;5065738;28;20041;-70
2022/12/28 08:53:29;;;;;;;15.15;10.70;;;8.30;99.90;;;;;;5015063;28;20410;-70
2022/12/28 08:55:54;;;;;;;14.20;10.80;;;8.40;99.90;;;;;;5041503;28;20045;-70
2022/12/28 08:58:20;;;;;;;14.55;11.25;;;8.40;99.90;;;;;;5041725;28;20055;-70
2022/12/28 09:00:46;;;;;;;12.88;9.75;;;8.40;99.90;;;;;;5049485;28;20048;-70
2022/12/28 09:03:12;;;;;;;11.05;9.20;;;8.40;99.90;;;;;;5045558;28;20173;-70
2022/12/28 09:05:38;;;;;;;12.43;9.73;;;8.50;99.90;;;;;;5053411;28;20134;-70
2022/12/28 09:08:04;;;;;;;9.60;8.57;;;8.50;99.90;;;;;;5052048;28;20049;-70
2022/12/28 09:10:30;;;;;;;9.63;8.35;;;8.40;99.90;;;;;;5065264;28;20182;-70
2022/12/28 09:12:56;;;;;;;9.23;6.97;;;8.40;99.90;;;;;;5051790;28;20565;-74
2022/12/28 09:15:23;;;;;;;7.40;6.40;;;8.40;99.90;;;;;;5052563;28;20041;-69
2022/12/28 09:17:48;;;;;;;7.72;6.75;;;8.40;99.90;;;;;;5085698;28;20048;-69
2022/12/28 09:20:14;;;;;;;7.15;5.75;;;8.40;99.90;;;;;;5052934;28;20045;-68
2022/12/28 09:22:40;;;;;;;5.80;5.20;;;8.40;99.90;;;;;;5052109;28;20049;-69
2022/12/28 09:25:06;;;;;;;7.68;4.47;;;8.40;99.90;;;;;;5061244;28;20051;-69
2022/12/28 09:27:31;;;;;;;6.03;4.72;;;8.50;99.90;;;;;;5051990;28;20037;-69
2022/12/28 09:29:57;;;;;;;6.38;4.88;;;8.40;99.90;;;;;;5052113;28;20422;-70
2022/12/28 09:32:23;;;;;;;6.57;5.30;;;8.50;99.90;;;;;;5049819;28;20145;-69
2022/12/28 09:34:48;;;;;;;7.57;4.85;;;8.50;99.90;;;;;;5049345;28;20049;-69
2022/12/28 09:37:14;;;;;;;6.75;5.25;;;8.40;99.90;;;;;;5040618;28;20515;-69
2022/12/28 09:39:40;;;;;;;6.32;5.10;;;8.50;99.90;;;;;;5043791;28;20049;-72
2022/12/28 09:42:22;;;;;;;7.53;5.60;;;8.50;99.90;;;;;;5039650;28;20053;-68
2022/12/28 09:44:54;;;;;;;7.15;5.32;;;8.50;99.90;;;;;;5062345;28;20040;-69
2022/12/28 09:47:54;;;;;;;7.93;6.32;;;8.50;99.90;;;;;;5062439;28;20068;-70
2022/12/28 09:50:34;;;;;;;7.38;6.32;;;8.60;99.90;;;;;;5041853;28;20053;-71
2022/12/28 09:53:15;;;;;;;10.52;6.32;;;8.50;99.90;;;;;;5064363;28;20502;-69
2022/12/28 09:55:48;;;;;;;7.82;6.20;;;8.50;99.90;;;;;;5037344;28;20159;-70
2022/12/28 09:58:15;;;;;;;8.10;5.72;;;8.50;99.90;;;;;;5050019;28;20053;-69
2022/12/28 10:00:47;;;;;;;7.57;5.70;;;8.60;99.90;;;;;;5048966;28;20137;-70
2022/12/28 10:03:22;;;;;;;7.25;5.75;;;8.60;99.90;;;;;;5049373;28;20111;-69
2022/12/28 10:05:50;;;;;;;7.15;5.65;;;8.60;99.90;;;;;;5033567;28;20055;-70
2022/12/28 10:08:19;;;;;;;6.65;5.13;;;8.60;99.90;;;;;;5051022;28;20088;-69
2022/12/28 10:10:46;;;;;;;7.32;5.47;;;8.70;99.90;;;;;;5042986;28;20045;-69
2022/12/28 10:13:28;;;;;;;10.02;6.68;;;8.60;99.90;;;;;;5040361;28;20393;-69
2022/12/28 10:15:54;;;;;;;6.25;4.80;;;8.60;99.90;;;;;;5075651;28;20072;-69
2022/12/28 10:18:24;;;;;;;6.22;4.97;;;8.50;99.90;;;;;;5055780;28;20418;-72
2022/12/28 10:20:50;;;;;;;7.25;5.22;;;8.60;99.90;;;;;;5054947;28;20061;-71
2022/12/28 10:23:21;;;;;;;6.70;4.85;;;8.70;99.90;;;;;;5045064;28;20045;-71
2022/12/28 10:25:49;;;;;;;7.22;4.72;;;8.70;99.90;;;;;;5083129;28;20056;-69
2022/12/28 10:28:17;;;;;;;5.47;4.40;;;8.70;99.90;;;;;;5049723;28;20433;-69
2022/12/28 10:30:48;;;;;;;5.68;4.70;;;8.70;99.90;;;;;;5047758;28;20115;-69
2022/12/28 10:33:18;;;;;;;6.63;5.00;;;8.70;99.90;;;;;;5044941;28;20475;-69
2022/12/28 10:35:53;;;;;;;7.22;5.43;;;8.70;99.90;;;;;;5029082;28;20107;-69
2022/12/28 10:38:27;;;;;;;7.55;5.13;;;8.60;99.90;;;;;;5056187;28;20095;-69
2022/12/28 10:41:10;;;;;;;6.83;4.83;;;8.60;99.90;;;;;;5048057;28;20080;-71
2022/12/28 10:43:39;;;;;;;7.65;4.88;;;8.60;99.90;;;;;;5049772;28;20353;-69
2022/12/28 10:46:12;;;;;;;8.95;5.63;;;8.60;99.90;;;;;;5050510;28;20084;-69
2022/12/28 10:48:38;;;;;;;8.05;5.97;;;8.70;99.90;;;;;;5051355;28;20107;-68
2022/12/28 10:51:13;;;;;;;7.75;5.90;;;8.70;99.90;;;;;;5082334;28;20063;-73
2022/12/28 10:53:39;;;;;;;9.73;6.72;;;8.70;99.90;;;;;;5038243;28;20089;-69
2022/12/28 10:56:32;;;;;;;9.18;6.95;;;8.70;99.90;;;;;;5082908;28;20087;-69
2022/12/28 10:59:10;;;;;;;9.57;7.13;;;8.70;99.90;;;;;;5045667;28;20101;-69
2022/12/28 11:01:36;;;;;;;10.55;7.30;;;8.70;99.90;;;;;;5053728;28;20055;-69
2022/12/28 11:04:15;;;;;;;9.10;6.38;;;8.70;99.90;;;;;;5051979;28;20056;-68
2022/12/28 11:06:51;;;;;;;10.40;7.25;;;8.70;99.90;;;;;;5049933;28;20343;-68
2022/12/28 11:09:28;;;;;;;9.68;6.80;;;8.70;99.90;;;;;;5053043;28;20393;-67
2022/12/28 11:12:14;;;;;;;10.38;7.18;;;8.80;99.90;;;;;;5050099;28;20131;-68
2022/12/28 11:14:40;;;;;;;9.52;7.07;;;8.70;99.90;;;;;;5051332;28;20135;-68
2022/12/28 11:17:18;;;;;;;9.02;6.35;;;8.80;99.90;;;;;;5050648;28;20120;-69
2022/12/28 11:19:45;;;;;;;8.93;6.70;;;8.70;99.90;;;;;;5050057;28;20044;-69
2022/12/28 11:22:14;;;;;;;7.75;5.75;;;8.80;99.90;;;;;;5054730;28;20124;-69
2022/12/28 11:24:39;;;;;;;6.10;4.45;;;8.80;99.90;;;;;;5050152;28;20049;-68
2022/12/28 11:27:12;;;;;;;7.65;5.30;;;8.80;99.90;;;;;;5047006;28;20048;-71
2022/12/28 11:29:42;;;;;;;7.47;5.75;;;8.80;99.90;;;;;;5049926;28;20103;-69
2022/12/28 11:32:20;;;;;;;8.20;4.93;;;8.80;99.90;;;;;;5051141;28;20443;-69
2022/12/28 11:34:46;;;;;;;6.07;4.57;;;8.80;99.90;;;;;;5037188;28;20478;-69
2022/12/28 11:37:13;;;;;;;6.43;4.63;;;8.80;99.90;;;;;;5043992;28;20048;-70
2022/12/28 11:39:47;;;;;;;6.18;3.92;;;8.90;99.90;;;;;;5050710;28;20036;-69
2022/12/28 11:42:31;;;;;;;5.60;4.03;;;8.80;99.90;;;;;;5042630;28;20037;-69
2022/12/28 11:45:04;;;;;;;5.13;3.70;;;8.90;99.90;;;;;;5040805;28;20481;-72
2022/12/28 11:47:32;;;;;;;6.15;4.22;;;8.80;99.90;;;;;;5051022;28;20399;-68
2022/12/28 11:50:38;;;;;;;5.80;3.50;;;8.90;99.90;;;;;;5048359;28;20051;-70
2022/12/28 11:53:37;;;;;;;4.88;3.58;;;8.90;99.90;;;;;;5043542;28;20170;-69
2022/12/28 11:56:06;;;;;;;4.78;3.20;;;8.80;99.90;;;;;;5043963;28;20037;-70
2022/12/28 11:58:38;;;;;;;6.20;4.00;;;8.90;99.90;;;;;;5041420;28;20390;-69
2022/12/28 12:01:04;;;;;;;5.15;3.75;;;8.80;99.90;;;;;;5040623;28;20147;-68
2022/12/28 12:03:58;;;;;;;4.53;3.67;;;8.90;99.90;;;;;;5049206;28;20130;-68
2022/12/28 12:06:42;;;;;;;4.85;3.90;;;8.90;99.90;;;;;;5044268;28;20405;-70
2022/12/28 12:09:20;;;;;;;5.72;3.67;;;8.90;99.90;;;;;;5042502;28;20048;-69
2022/12/28 12:11:54;;;;;;;5.30;3.95;;;9.00;99.90;;;;;;5040573;28;20538;-69
2022/12/28 12:14:30;;;;;;;4.30;3.40;;;8.80;99.90;;;;;;5067038;28;20057;-69
2022/12/28 12:17:02;;;;;;;6.00;4.22;;;8.80;99.90;;;;;;5049147;28;20049;-70
2022/12/28 12:19:31;;;;;;;5.00;4.07;;;8.80;99.90;;;;;;5048944;28;20486;-69
2022/12/28 12:22:14;;;;;;;6.28;4.28;;;8.80;99.90;;;;;;5052813;28;20475;-70
2022/12/28 12:24:59;;;;;;;5.68;4.80;;;8.80;99.90;;;;;;5041561;28;20061;-69
2022/12/28 12:27:37;;;;;;;;;;;8.90;99.90;;;;;;5053482;28;20354;-69
2022/12/28 12:30:14;;;;;;;5.85;4.68;;;8.80;99.90;;;;;;5055722;28;19929;-70
2022/12/28 12:32:48;;;;;;;7.05;4.22;;;8.80;99.90;;;;;;5042838;28;20410;-70
2022/12/28 12:35:18;;;;;;;5.93;4.32;;;8.80;99.90;;;;;;5048891;28;20037;-69
2022/12/28 12:38:10;;;;;;;7.88;4.80;;;8.90;99.90;;;;;;5049182;28;20037;-69
2022/12/28 12:41:08;;;;;;;6.07;4.65;;;8.80;99.90;;;;;;5048664;28;20061;-69
2022/12/28 12:43:46;;;;;;;5.15;4.38;;;8.80;99.90;;;;;;5050272;28;20057;-69
2022/12/28 12:46:29;;;;;;;5.25;4.18;;;8.90;99.90;;;;;;5048087;28;20052;-68
2022/12/28 12:49:13;;;;;;;5.30;3.90;;;8.90;99.90;;;;;;5045589;28;20343;-69
2022/12/28 12:52:26;;;;;;;5.78;3.88;;;8.90;99.90;;;;;;5046551;28;20215;-69
2022/12/28 12:55:17;;;;;;;4.47;3.78;;;8.90;99.90;;;;;;5031958;28;20056;-68
2022/12/28 12:57:57;;;;;;;6.70;4.15;;;8.80;99.90;;;;;;5045744;28;20552;-68
2022/12/28 13:00:27;;;;;;;5.80;4.40;;;8.80;99.90;;;;;;5031856;28;20049;-70
2022/12/28 13:03:01;;;;;;;4.45;3.33;;;8.80;99.90;;;;;;5039934;28;20106;-69
2022/12/28 13:05:27;;;;;;;;;;;8.90;99.90;;;;;;5051215;28;20132;-69
2022/12/28 13:07:56;;;;;;;4.03;3.33;;;8.90;99.90;;;;;;5082346;28;20254;-69
2022/12/28 13:10:36;;;;;;;4.95;3.30;;;8.90;99.90;;;;;;5028875;28;20040;-69
2022/12/28 13:13:04;;;;;;;5.45;3.20;;;8.80;99.90;;;;;;5035457;28;20446;-70
2022/12/28 13:15:30;;;;;;;7.40;3.20;;;8.80;99.90;;;;;;5056105;28;20111;-70
2022/12/28 13:17:58;;;;;;;4.10;3.00;;;8.80;99.90;;;;;;5048720;28;20112;-69
2022/12/28 13:20:24;;;;;;;4.60;3.03;;;8.80;99.90;;;;;;5051917;28;20052;-69
2022/12/28 13:22:50;;;;;;;4.10;3.30;;;8.90;99.90;;;;;;5048753;28;20480;-68
2022/12/28 13:25:30;;;;;;;4.15;2.92;;;8.80;99.90;;;;;;5047193;28;20040;-70
2022/12/28 13:27:59;;;;;;;4.85;3.25;;;8.80;99.90;;;;;;5046983;28;20041;-71
2022/12/28 13:30:25;;;;;;;4.72;3.60;;;8.80;99.90;;;;;;5048173;28;20447;-70
2022/12/28 13:32:54;;;;;;;4.80;3.70;;;8.90;99.90;;;;;;5046939;28;20045;-69
2022/12/28 13:35:23;;;;;;;4.50;3.20;;;8.80;99.90;;;;;;5044416;28;20127;-70